createdAt,value
2023-02-14T00:02:19.409Z,38.83
2023-02-14T00:04:45.937Z,39.85
2023-02-14T00:07:12.754Z,38.63
2023-02-14T00:09:39.232Z,38.00
2023-02-14T00:12:06.236Z,37.08
2023-02-14T00:14:32.958Z,38.90
2023-02-14T00:16:59.898Z,36.65
2023-02-14T00:19:26.587Z,34.72
2023-02-14T00:21:53.142Z,36.58
2023-02-14T00:24:25.225Z,34.63
2023-02-14T00:26:52.736Z,35.95
2023-02-14T00:29:31.047Z,34.08
2023-02-14T00:31:58.120Z,32.08
2023-02-14T00:34:24.929Z,32.75
2023-02-14T00:36:51.628Z,33.22
2023-02-14T00:39:19.584Z,33.95
2023-02-14T00:41:46.137Z,32.80
2023-02-14T00:44:13.655Z,33.13
2023-02-14T00:46:40.687Z,32.55
2023-02-14T00:49:07.241Z,34.35
2023-02-14T00:51:33.760Z,34.95
2023-02-14T00:54:01.947Z,33.88
2023-02-14T00:56:31.021Z,34.30
2023-02-14T00:58:57.499Z,32.40
2023-02-14T01:01:24.213Z,35.20
2023-02-14T01:03:50.861Z,34.67
2023-02-14T01:06:18.740Z,33.55
2023-02-14T01:08:45.343Z,33.72
2023-02-14T01:11:23.038Z,33.75
2023-02-14T01:13:51.342Z,33.63
2023-02-14T01:16:21.565Z,33.38
2023-02-14T01:18:49.059Z,33.25
2023-02-14T01:21:45.364Z,31.77
2023-02-14T01:24:12.410Z,33.20
2023-02-14T01:26:41.460Z,32.97
2023-02-14T01:29:09.128Z,33.50
2023-02-14T01:31:36.132Z,32.30
2023-02-14T01:34:03.057Z,31.70
2023-02-14T01:36:38.436Z,32.13
2023-02-14T01:39:07.833Z,32.78
2023-02-14T01:41:37.510Z,30.95
2023-02-14T01:44:07.387Z,30.75
2023-02-14T01:46:36.112Z,31.85
2023-02-14T01:49:25.782Z,30.52
2023-02-14T01:52:14.226Z,31.80
2023-02-14T01:54:49.738Z,29.30
2023-02-14T01:57:20.301Z,29.15
2023-02-14T01:59:52.716Z,29.98
2023-02-14T02:02:19.642Z,28.98
2023-02-14T02:04:46.648Z,30.90
2023-02-14T02:07:19.383Z,29.55
2023-02-14T02:10:00.194Z,28.33
2023-02-14T02:12:29.248Z,29.95
2023-02-14T02:14:58.852Z,29.15
2023-02-14T02:17:38.200Z,30.85
2023-02-14T02:20:48.126Z,31.55
2023-02-14T02:23:23.440Z,29.35
2023-02-14T02:26:23.735Z,30.98
2023-02-14T02:28:59.406Z,29.33
2023-02-14T02:31:45.982Z,28.88
2023-02-14T02:34:18.516Z,27.65
2023-02-14T02:36:56.878Z,31.25
2023-02-14T02:39:41.459Z,29.42
2023-02-14T02:42:33.238Z,28.90
2023-02-14T02:45:33.698Z,30.27
2023-02-14T02:48:17.722Z,29.73
2023-02-14T02:50:49.332Z,29.55
2023-02-14T02:56:04.666Z,27.08
2023-02-14T02:58:36.837Z,29.27
2023-02-14T03:01:10.211Z,27.60
2023-02-14T03:03:39.453Z,26.67
2023-02-14T03:06:06.287Z,29.08
2023-02-14T03:08:33.052Z,29.23
2023-02-14T03:11:01.979Z,30.80
2023-02-14T03:13:41.920Z,28.52
2023-02-14T03:16:33.167Z,27.92
2023-02-14T03:19:21.695Z,26.70
2023-02-14T03:21:56.478Z,27.88
2023-02-14T03:24:50.880Z,28.80
2023-02-14T03:27:26.997Z,28.50
2023-02-14T03:30:02.652Z,28.73
2023-02-14T03:32:38.225Z,27.02
2023-02-14T03:35:23.642Z,26.42
2023-02-14T03:38:09.024Z,27.20
2023-02-14T03:40:43.000Z,27.05
2023-02-14T03:43:18.752Z,28.52
2023-02-14T03:46:04.238Z,28.80
2023-02-14T03:48:33.378Z,27.98
2023-02-14T03:51:01.403Z,32.05
2023-02-14T03:53:32.742Z,31.17
2023-02-14T03:56:12.720Z,32.15
2023-02-14T03:58:47.256Z,32.28
2023-02-14T04:01:21.283Z,31.98
2023-02-14T04:03:48.948Z,30.88
2023-02-14T04:06:18.284Z,33.58
2023-02-14T04:08:45.126Z,38.75
2023-02-14T04:11:11.756Z,38.65
2023-02-14T04:13:38.677Z,39.10
2023-02-14T04:16:05.809Z,40.80
2023-02-14T04:18:32.885Z,39.55
2023-02-14T04:21:00.245Z,39.17
2023-02-14T04:23:26.965Z,38.97
2023-02-14T04:25:53.499Z,37.90
2023-02-14T04:28:20.033Z,39.30
2023-02-14T04:30:46.675Z,42.45
2023-02-14T04:33:13.417Z,40.50
2023-02-14T04:35:39.913Z,40.90
2023-02-14T04:38:06.467Z,39.75
2023-02-14T04:40:33.007Z,39.80
2023-02-14T04:42:59.551Z,40.72
2023-02-14T04:45:26.012Z,39.63
2023-02-14T04:47:52.557Z,43.15
2023-02-14T04:50:19.076Z,42.92
2023-02-14T04:52:45.560Z,44.38
2023-02-14T04:55:12.024Z,42.25
2023-02-14T04:57:38.586Z,41.63
2023-02-14T05:00:05.916Z,42.63
2023-02-14T05:02:32.426Z,45.05
2023-02-14T05:04:58.910Z,41.03
2023-02-14T05:07:25.453Z,45.63
2023-02-14T05:09:51.986Z,44.92
2023-02-14T05:12:18.447Z,41.08
2023-02-14T05:14:45.029Z,40.03
2023-02-14T05:17:11.602Z,41.63
2023-02-14T05:19:38.065Z,37.58
2023-02-14T05:22:04.661Z,37.40
2023-02-14T05:24:31.221Z,38.63
2023-02-14T05:26:57.733Z,39.20
2023-02-14T05:29:24.219Z,38.30
2023-02-14T05:31:50.841Z,34.58
2023-02-14T05:34:17.301Z,35.25
2023-02-14T05:36:43.886Z,36.13
2023-02-14T05:39:10.331Z,33.75
2023-02-14T05:44:03.233Z,34.95
2023-02-14T05:46:29.716Z,32.63
2023-02-14T05:48:56.329Z,31.15
2023-02-14T05:51:22.853Z,30.33
2023-02-14T05:53:49.332Z,32.92
2023-02-14T05:56:15.832Z,34.70
2023-02-14T05:58:42.332Z,32.55
2023-02-14T06:01:08.833Z,32.53
2023-02-14T06:03:35.347Z,33.83
2023-02-14T06:06:01.849Z,31.55
2023-02-14T06:08:28.365Z,32.85
2023-02-14T06:10:54.874Z,33.00
2023-02-14T06:13:21.344Z,33.28
2023-02-14T06:15:47.793Z,32.85
2023-02-14T06:18:14.266Z,30.67
2023-02-14T06:20:40.737Z,33.15
2023-02-14T06:23:07.270Z,32.38
2023-02-14T06:25:33.761Z,32.22
2023-02-14T06:28:00.390Z,34.35
2023-02-14T06:30:27.715Z,36.47
2023-02-14T06:32:54.385Z,34.72
2023-02-14T06:35:20.904Z,35.50
2023-02-14T06:37:47.401Z,34.25
2023-02-14T06:40:14.334Z,41.78
2023-02-14T06:42:41.069Z,46.20
2023-02-14T06:45:08.106Z,46.30
2023-02-14T06:47:35.220Z,44.80
2023-02-14T06:50:02.673Z,43.13
2023-02-14T06:52:29.144Z,46.88
2023-02-14T06:54:55.681Z,44.67
2023-02-14T06:57:22.139Z,44.65
2023-02-14T06:59:48.612Z,42.28
2023-02-14T07:02:15.161Z,43.72
2023-02-14T07:04:41.674Z,43.30
2023-02-14T07:07:08.149Z,40.60
2023-02-14T07:09:34.713Z,40.55
2023-02-14T07:12:01.171Z,42.55
2023-02-14T07:14:27.690Z,39.72
2023-02-14T07:16:54.177Z,39.15
2023-02-14T07:19:20.653Z,39.63
2023-02-14T07:21:47.075Z,38.78
2023-02-14T07:24:13.571Z,41.97
2023-02-14T07:26:40.076Z,44.42
2023-02-14T07:29:06.553Z,42.90
2023-02-14T07:31:33.102Z,44.53
2023-02-14T07:33:59.708Z,47.90
2023-02-14T07:36:26.287Z,45.28
2023-02-14T07:38:52.799Z,44.15
2023-02-14T07:41:19.383Z,42.85
2023-02-14T07:43:45.853Z,43.30
2023-02-14T07:46:12.336Z,44.50
2023-02-14T07:48:38.840Z,40.70
2023-02-14T07:51:05.368Z,40.38
2023-02-14T07:53:31.933Z,38.63
2023-02-14T07:55:58.537Z,39.35
2023-02-14T07:58:25.011Z,39.60
2023-02-14T08:00:51.486Z,40.63
2023-02-14T08:03:18.282Z,39.38
2023-02-14T08:05:45.176Z,38.42
2023-02-14T08:08:11.630Z,39.30
2023-02-14T08:10:38.140Z,40.78
2023-02-14T08:13:04.643Z,41.63
2023-02-14T08:15:35.535Z,41.20
2023-02-14T08:18:02.035Z,41.50
2023-02-14T08:20:28.544Z,39.58
2023-02-14T08:22:55.087Z,38.72
2023-02-14T08:25:21.522Z,39.40
2023-02-14T08:27:48.009Z,38.00
2023-02-14T08:30:15.207Z,38.08
2023-02-14T08:32:41.889Z,36.92
2023-02-14T08:35:09.709Z,41.15
2023-02-14T08:37:36.232Z,38.03
2023-02-14T08:40:03.040Z,39.30
2023-02-14T08:42:29.557Z,37.85
2023-02-14T08:44:56.057Z,41.08
2023-02-14T08:47:22.534Z,41.60
2023-02-14T08:49:49.023Z,39.70
2023-02-14T08:52:16.030Z,41.03
2023-02-14T08:54:42.746Z,40.85
2023-02-14T08:57:09.288Z,40.85
2023-02-14T08:59:35.810Z,41.75
2023-02-14T09:02:02.303Z,42.08
2023-02-14T09:04:28.876Z,39.60
2023-02-14T09:06:55.417Z,40.13
2023-02-14T09:09:21.895Z,36.80
2023-02-14T09:11:48.393Z,39.22
2023-02-14T09:14:14.920Z,35.55
2023-02-14T09:16:41.487Z,33.50
2023-02-14T09:19:07.976Z,32.95
2023-02-14T09:21:34.490Z,33.70
2023-02-14T09:24:00.965Z,32.92
2023-02-14T09:26:27.440Z,31.35
2023-02-14T09:28:53.958Z,31.65
2023-02-14T09:31:22.952Z,31.55
2023-02-14T09:33:50.944Z,32.55
2023-02-14T09:36:17.620Z,30.83
2023-02-14T09:38:44.116Z,30.00
2023-02-14T09:41:36.174Z,28.88
2023-02-14T09:44:07.858Z,29.48
2023-02-14T09:46:42.824Z,30.23
2023-02-14T09:49:15.508Z,28.52
2023-02-14T09:51:49.105Z,28.13
2023-02-14T09:54:26.912Z,28.73
2023-02-14T09:57:02.484Z,27.50
2023-02-14T09:59:52.747Z,27.73
2023-02-14T10:02:19.435Z,27.25
2023-02-14T10:05:07.338Z,26.75
2023-02-14T10:07:48.222Z,28.15
2023-02-14T10:11:02.541Z,26.42
2023-02-14T10:13:44.416Z,27.13
2023-02-14T10:16:28.164Z,26.38
2023-02-14T10:19:02.532Z,27.05
2023-02-14T10:21:36.204Z,26.35
2023-02-14T10:24:16.370Z,26.63
2023-02-14T10:26:42.898Z,26.85
2023-02-14T10:29:14.522Z,26.77
2023-02-14T10:31:56.805Z,26.88
2023-02-14T10:34:47.161Z,27.38
2023-02-14T10:37:13.617Z,27.20
2023-02-14T10:39:58.413Z,25.95
2023-02-14T10:42:43.383Z,26.63
2023-02-14T10:45:34.363Z,26.42
2023-02-14T10:48:12.841Z,26.15
2023-02-14T10:50:44.810Z,26.73
2023-02-14T10:53:11.235Z,26.10
2023-02-14T10:55:45.334Z,26.70
2023-02-14T10:58:16.065Z,26.88
2023-02-14T11:01:04.064Z,26.42
2023-02-14T11:03:33.416Z,25.63
2023-02-14T11:06:00.047Z,25.15
2023-02-14T11:08:52.847Z,25.73
2023-02-14T11:11:27.377Z,25.60
2023-02-14T11:13:54.046Z,24.85
2023-02-14T11:16:32.805Z,25.27
2023-02-14T11:19:14.554Z,25.65
2023-02-14T11:21:45.997Z,25.63
2023-02-14T11:27:02.217Z,24.35
2023-02-14T11:32:14.250Z,24.98
2023-02-14T11:34:45.344Z,24.95
2023-02-14T11:37:28.843Z,24.77
2023-02-14T11:39:59.479Z,24.38
2023-02-14T11:42:46.543Z,26.30
2023-02-14T11:45:26.300Z,25.77
2023-02-14T11:48:22.030Z,25.70
2023-02-14T11:51:00.783Z,25.38
2023-02-14T11:53:29.803Z,25.05
2023-02-14T11:55:58.656Z,24.45
2023-02-14T11:58:36.260Z,24.30
2023-02-14T12:01:03.559Z,23.67
2023-02-14T12:03:39.343Z,23.98
2023-02-14T12:06:06.463Z,24.05
2023-02-14T12:08:33.006Z,24.88
2023-02-14T12:11:04.346Z,23.92
2023-02-14T12:13:32.502Z,23.30
2023-02-14T12:15:59.354Z,22.77
2023-02-14T12:18:31.646Z,22.85
2023-02-14T12:21:22.210Z,23.13
2023-02-14T12:23:48.621Z,22.52
2023-02-14T12:26:28.481Z,21.45
2023-02-14T12:29:19.709Z,22.08
2023-02-14T12:31:47.520Z,22.58
2023-02-14T12:34:16.637Z,22.67
2023-02-14T12:37:05.849Z,22.38
2023-02-14T12:39:37.474Z,22.77
2023-02-14T12:42:51.274Z,23.67
2023-02-14T12:45:30.354Z,23.83
2023-02-14T12:48:16.171Z,22.67
2023-02-14T12:51:07.625Z,22.52
2023-02-14T12:53:42.338Z,23.27
2023-02-14T12:56:31.900Z,24.15
2023-02-14T12:59:04.541Z,23.40
2023-02-14T13:01:58.932Z,23.95
2023-02-14T13:04:58.617Z,22.88
2023-02-14T13:07:29.131Z,22.63
2023-02-14T13:10:23.215Z,23.80
2023-02-14T13:13:15.307Z,23.90
2023-02-14T13:15:53.152Z,21.95
2023-02-14T13:18:54.450Z,22.00
2023-02-14T13:21:26.250Z,21.98
2023-02-14T13:23:56.930Z,20.08
2023-02-14T13:26:35.353Z,19.33
2023-02-14T13:29:10.209Z,15.68
2023-02-14T13:31:38.388Z,15.43
2023-02-14T13:34:28.232Z,15.43
2023-02-14T13:36:58.005Z,15.65
2023-02-14T13:39:37.913Z,16.48
2023-02-14T13:42:06.312Z,16.77
2023-02-14T13:44:38.750Z,16.15
2023-02-14T13:47:07.666Z,17.00
2023-02-14T13:49:39.453Z,17.55
2023-02-14T13:52:06.516Z,17.10
2023-02-14T13:54:48.660Z,17.15
2023-02-14T13:57:32.279Z,18.60
2023-02-14T14:00:22.619Z,19.27
2023-02-14T14:02:54.045Z,17.45
2023-02-14T14:08:22.002Z,19.42
2023-02-14T14:10:52.516Z,16.92
2023-02-14T14:13:40.660Z,16.92
2023-02-14T14:16:25.118Z,17.58
2023-02-14T14:18:53.959Z,18.20
2023-02-14T14:21:35.099Z,18.25
2023-02-14T14:24:30.483Z,18.75
2023-02-14T14:27:03.501Z,19.63
2023-02-14T14:29:44.996Z,18.90
2023-02-14T14:34:49.281Z,15.60
2023-02-14T14:37:18.962Z,16.02
2023-02-14T14:40:08.421Z,15.52
2023-02-14T14:42:40.177Z,16.63
2023-02-14T14:45:19.053Z,16.42
2023-02-14T14:47:46.530Z,15.68
2023-02-14T14:50:21.783Z,15.35
2023-02-14T14:52:51.173Z,16.13
2023-02-14T14:55:24.689Z,16.33
2023-02-14T14:57:56.509Z,15.23
2023-02-14T15:00:33.982Z,15.68
2023-02-14T15:03:06.028Z,16.08
2023-02-14T15:05:36.478Z,15.63
2023-02-14T15:08:27.760Z,16.53
2023-02-14T15:10:58.716Z,14.80
2023-02-14T15:13:37.057Z,15.02
2023-02-14T15:16:04.027Z,15.80
2023-02-14T15:18:30.682Z,15.52
2023-02-14T15:20:57.467Z,15.25
2023-02-14T15:23:24.901Z,15.90
2023-02-14T15:25:52.185Z,16.60
2023-02-14T15:28:33.503Z,15.25
2023-02-14T15:31:03.713Z,16.52
2023-02-14T15:33:32.181Z,15.70
2023-02-14T15:36:04.132Z,17.75
2023-02-14T15:38:31.809Z,18.45
2023-02-14T15:41:00.112Z,19.10
2023-02-14T15:43:36.379Z,19.38
2023-02-14T15:46:19.852Z,16.92
2023-02-14T15:48:47.202Z,17.35
2023-02-14T15:51:21.528Z,17.23
2023-02-14T15:53:55.912Z,16.95
2023-02-14T15:56:26.202Z,16.80
2023-02-14T15:58:59.777Z,16.88
2023-02-14T16:01:26.297Z,17.27
2023-02-14T16:03:57.287Z,17.70
2023-02-14T16:06:32.920Z,17.52
2023-02-14T16:08:59.502Z,17.08
2023-02-14T16:11:37.363Z,17.67
2023-02-14T16:14:26.784Z,17.08
2023-02-14T16:17:03.763Z,17.65
2023-02-14T16:19:42.471Z,17.90
2023-02-14T16:22:23.956Z,18.95
2023-02-14T16:24:50.465Z,20.65
2023-02-14T16:27:16.994Z,19.77
2023-02-14T16:29:43.472Z,19.42
2023-02-14T16:32:28.021Z,18.75
2023-02-14T16:34:54.633Z,18.50
2023-02-14T16:37:30.086Z,20.38
2023-02-14T16:39:56.790Z,19.67
2023-02-14T16:42:24.003Z,18.60
2023-02-14T16:44:50.910Z,19.38
2023-02-14T16:47:19.741Z,20.27
2023-02-14T16:49:46.808Z,19.50
2023-02-14T16:52:16.728Z,19.58
2023-02-14T16:54:43.610Z,19.42
2023-02-14T16:57:28.972Z,19.55
2023-02-14T16:59:56.838Z,20.23
2023-02-14T17:02:23.976Z,21.42
2023-02-14T17:04:50.498Z,22.02
2023-02-14T17:07:17.101Z,22.45
2023-02-14T17:09:50.083Z,21.38
2023-02-14T17:12:20.732Z,23.52
2023-02-14T17:14:51.429Z,22.47
2023-02-14T17:17:18.094Z,23.37
2023-02-14T17:19:44.735Z,23.15
2023-02-14T17:22:14.091Z,22.80
2023-02-14T17:24:41.554Z,23.98
2023-02-14T17:27:08.087Z,23.75
2023-02-14T17:29:34.614Z,24.50
2023-02-14T17:32:01.250Z,24.90
2023-02-14T17:34:32.196Z,24.83
2023-02-14T17:36:58.832Z,24.33
2023-02-14T17:39:25.444Z,23.10
2023-02-14T17:41:51.943Z,22.13
2023-02-14T17:44:18.433Z,22.98
2023-02-14T17:46:44.921Z,24.00
2023-02-14T17:49:11.446Z,24.05
2023-02-14T17:51:37.953Z,24.45
2023-02-14T17:54:04.435Z,24.50
2023-02-14T17:56:30.922Z,24.23
2023-02-14T17:58:57.488Z,22.98
2023-02-14T18:01:27.084Z,25.20
2023-02-14T18:03:54.537Z,25.42
2023-02-14T18:06:21.608Z,23.45
2023-02-14T18:08:49.797Z,24.23
2023-02-14T18:11:18.316Z,23.02
2023-02-14T18:13:44.866Z,23.08
2023-02-14T18:16:15.497Z,22.90
2023-02-14T18:18:42.102Z,23.97
2023-02-14T18:21:11.887Z,23.67
2023-02-14T18:23:38.901Z,23.15
2023-02-14T18:26:09.681Z,23.55
2023-02-14T18:28:36.750Z,23.90
2023-02-14T18:31:15.465Z,44.60
2023-02-14T18:33:42.836Z,40.67
2023-02-14T18:36:12.149Z,40.22
2023-02-14T18:38:39.930Z,37.22
2023-02-14T18:41:08.338Z,35.88
2023-02-14T18:43:35.978Z,32.20
2023-02-14T18:46:07.690Z,31.98
2023-02-14T18:48:34.378Z,29.52
2023-02-14T18:51:15.869Z,28.25
2023-02-14T18:53:43.862Z,25.50
2023-02-14T18:56:16.316Z,24.83
2023-02-14T18:58:46.466Z,23.52
2023-02-14T19:01:19.936Z,22.88
2023-02-14T19:03:46.963Z,22.42
2023-02-14T19:06:13.436Z,23.70
2023-02-14T19:08:41.091Z,21.58
2023-02-14T19:11:13.172Z,20.88
2023-02-14T19:13:44.297Z,22.42
2023-02-14T19:16:12.890Z,21.23
2023-02-14T19:18:39.947Z,21.67
2023-02-14T19:21:11.331Z,20.77
2023-02-14T19:23:38.052Z,20.98
2023-02-14T19:26:19.580Z,19.70
2023-02-14T19:28:47.327Z,23.38
2023-02-14T19:31:14.357Z,20.63
2023-02-14T19:33:43.754Z,21.42
2023-02-14T19:36:16.164Z,21.98
2023-02-14T19:38:45.057Z,22.23
2023-02-14T19:41:21.474Z,22.50
2023-02-14T19:43:48.880Z,22.27
2023-02-14T19:46:17.647Z,22.98
2023-02-14T19:48:45.062Z,23.30
2023-02-14T19:51:16.801Z,22.75
2023-02-14T19:53:43.353Z,21.98
2023-02-14T19:56:10.709Z,23.05
2023-02-14T19:58:37.213Z,22.85
2023-02-14T20:01:04.742Z,23.00
2023-02-14T20:03:32.127Z,22.98
2023-02-14T20:05:58.659Z,23.27
2023-02-14T20:08:25.125Z,22.13
2023-02-14T20:10:51.620Z,21.67
2023-02-14T20:13:18.103Z,22.27
2023-02-14T20:15:44.566Z,21.88
2023-02-14T20:18:11.046Z,23.38
2023-02-14T20:20:37.514Z,21.48
2023-02-14T20:23:03.985Z,22.70
2023-02-14T20:25:30.439Z,22.52
2023-02-14T20:27:56.952Z,23.05
2023-02-14T20:30:23.470Z,22.67
2023-02-14T20:32:50.843Z,22.33
2023-02-14T20:35:17.309Z,22.08
2023-02-14T20:37:43.766Z,21.83
2023-02-14T20:40:10.863Z,23.67
2023-02-14T20:42:37.337Z,24.33
2023-02-14T20:45:03.966Z,25.52
2023-02-14T20:47:30.447Z,26.60
2023-02-14T20:49:56.925Z,24.83
2023-02-14T20:52:23.415Z,25.60
2023-02-14T20:54:49.865Z,26.02
2023-02-14T20:57:16.329Z,23.23
2023-02-14T20:59:42.879Z,26.38
2023-02-14T21:02:09.798Z,25.80
2023-02-14T21:04:36.518Z,26.55
2023-02-14T21:07:03.325Z,27.77
2023-02-14T21:09:29.772Z,25.50
2023-02-14T21:11:56.253Z,25.67
2023-02-14T21:14:22.709Z,27.92
2023-02-14T21:16:49.184Z,26.90
2023-02-14T21:19:15.729Z,26.52
2023-02-14T21:21:42.256Z,24.95
2023-02-14T21:24:15.773Z,25.15
2023-02-14T21:26:43.332Z,25.75
2023-02-14T21:29:10.197Z,23.90
2023-02-14T21:31:38.400Z,25.73
2023-02-14T21:34:05.282Z,25.67
2023-02-14T21:36:33.597Z,25.90
2023-02-14T21:39:00.261Z,26.85
2023-02-14T21:41:31.084Z,26.50
2023-02-14T21:43:59.065Z,27.60
2023-02-14T21:46:28.128Z,27.17
2023-02-14T21:48:56.023Z,27.73
2023-02-14T21:51:22.983Z,26.42
2023-02-14T21:53:50.012Z,25.85
2023-02-14T21:56:20.228Z,26.33
2023-02-14T21:58:48.581Z,26.77
2023-02-14T22:01:23.215Z,27.65
2023-02-14T22:03:51.019Z,29.33
2023-02-14T22:06:17.576Z,29.10
2023-02-14T22:08:44.496Z,27.92
2023-02-14T22:11:13.542Z,29.08
2023-02-14T22:13:40.692Z,32.40
2023-02-14T22:16:13.375Z,33.58
2023-02-14T22:18:40.279Z,36.08
2023-02-14T22:21:13.129Z,33.75
2023-02-14T22:23:40.178Z,33.35
2023-02-14T22:26:14.482Z,31.77
2023-02-14T22:28:42.233Z,33.97
2023-02-14T22:31:09.419Z,34.75
2023-02-14T22:33:37.776Z,36.50
2023-02-14T22:36:05.348Z,37.45
2023-02-14T22:38:32.889Z,36.90
2023-02-14T22:41:15.437Z,35.22
2023-02-14T22:43:43.517Z,37.30
2023-02-14T22:46:18.848Z,34.67
2023-02-14T22:48:46.521Z,37.33
2023-02-14T22:51:24.862Z,34.90
2023-02-14T22:53:54.597Z,31.80
2023-02-14T22:56:25.084Z,33.63
2023-02-14T22:58:56.310Z,34.40
2023-02-14T23:01:23.697Z,36.28
2023-02-14T23:03:53.966Z,34.50
2023-02-14T23:06:20.582Z,34.60
2023-02-14T23:08:47.841Z,35.30
2023-02-14T23:11:17.621Z,33.50
2023-02-14T23:13:44.357Z,32.72
2023-02-14T23:16:10.842Z,32.33
2023-02-14T23:18:37.350Z,33.03
2023-02-14T23:21:03.820Z,33.33
2023-02-14T23:23:31.842Z,31.05
2023-02-14T23:25:59.681Z,31.10
2023-02-14T23:28:26.914Z,32.40
2023-02-14T23:30:53.380Z,30.90
2023-02-14T23:33:20.568Z,32.75
2023-02-14T23:35:47.015Z,30.70
2023-02-14T23:38:13.537Z,30.67
2023-02-14T23:40:39.966Z,31.70
2023-02-14T23:43:06.421Z,30.15
2023-02-14T23:45:32.920Z,30.02
2023-02-14T23:48:04.322Z,29.80
2023-02-14T23:50:31.091Z,32.95
2023-02-14T23:52:58.282Z,32.13
2023-02-14T23:55:24.849Z,30.23
2023-02-14T23:57:51.302Z,31.55
